createdAt,value
2019-02-12T05:31:10.489Z,98806.23
2019-02-12T05:32:18.738Z,98809.24
2019-02-12T05:33:26.779Z,98812.45
2019-02-12T05:34:34.812Z,98807.83
2019-02-12T05:35:42.834Z,98814.14
2019-02-12T05:36:50.563Z,98820.52
2019-02-12T05:37:58.658Z,98817.31
2019-02-12T05:39:06.860Z,98820.78
2019-02-12T05:40:15.108Z,98825.16
2019-02-12T05:41:22.818Z,98832.12
2019-02-12T05:42:30.838Z,98826.38
2019-02-12T05:43:39.222Z,98825.00
2019-02-12T05:44:47.296Z,98832.71
2019-02-12T05:45:55.524Z,98826.54
2019-02-12T05:47:03.968Z,98832.95
2019-02-12T05:48:13.597Z,98832.88
2019-02-12T05:49:21.402Z,98828.92
2019-02-12T05:50:30.973Z,98817.48
2019-02-12T05:51:39.275Z,98834.78
2019-02-12T05:52:53.704Z,98829.55
2019-02-12T05:53:56.793Z,98833.41
2019-02-12T05:55:04.949Z,98833.18
2019-02-12T05:56:12.853Z,98837.04
2019-02-12T05:57:20.372Z,98835.14
2019-02-12T05:58:28.380Z,98838.51
2019-02-12T05:59:38.312Z,98828.38
2019-02-12T06:00:46.066Z,98837.06
2019-02-12T06:01:53.750Z,98836.58
2019-02-12T06:03:01.680Z,98843.44
2019-02-12T06:04:10.143Z,98837.59
2019-02-12T06:05:30.218Z,98837.06
2019-02-12T06:06:38.577Z,98833.85
2019-02-12T06:07:46.651Z,98836.30
2019-02-12T06:08:54.945Z,98837.02
2019-02-12T06:10:02.864Z,98843.98
2019-02-12T06:11:10.845Z,98841.75
2019-02-12T06:12:18.935Z,98841.97
2019-02-12T06:13:26.933Z,98838.30
2019-02-12T06:14:35.064Z,98830.28
2019-02-12T06:15:43.140Z,98832.20
2019-02-12T06:16:51.132Z,98832.84
2019-02-12T06:17:58.865Z,98833.66
2019-02-12T06:19:06.741Z,98830.50
2019-02-12T06:20:14.409Z,98824.42
2019-02-12T06:21:22.173Z,98829.58
2019-02-12T06:22:30.385Z,98828.09
2019-02-12T06:23:38.646Z,98831.31
2019-02-12T06:24:46.263Z,98825.16
2019-02-12T06:25:54.463Z,98826.08
2019-02-12T06:27:02.563Z,98825.23
2019-02-12T06:28:10.562Z,98829.48
2019-02-12T06:29:19.449Z,98829.08
2019-02-12T06:30:29.929Z,98830.53
2019-02-12T06:31:38.309Z,98834.20
2019-02-12T06:32:47.242Z,98821.39
2019-02-12T06:33:55.408Z,98824.25
2019-02-12T06:35:03.680Z,98822.75
2019-02-12T06:36:11.570Z,98834.28
2019-02-12T06:37:19.298Z,98840.36
2019-02-12T06:38:27.678Z,98837.33
2019-02-12T06:39:35.800Z,98842.19
2019-02-12T06:40:43.579Z,98839.54
2019-02-12T06:41:51.359Z,98842.13
2019-02-12T06:42:59.163Z,98840.34
2019-02-12T06:44:07.387Z,98847.14
2019-02-12T06:45:16.393Z,98842.23
2019-02-12T06:46:24.066Z,98846.25
2019-02-12T06:47:32.155Z,98845.72
2019-02-12T06:48:40.150Z,98847.84
2019-02-12T06:49:48.078Z,98847.67
2019-02-12T06:50:56.135Z,98851.09
2019-02-12T06:52:04.134Z,98856.14
2019-02-12T06:53:12.868Z,98860.88
2019-02-12T06:54:20.985Z,98853.98
2019-02-12T06:55:29.130Z,98849.27
2019-02-12T06:56:37.382Z,98849.00
2019-02-12T06:57:45.423Z,98850.91
2019-02-12T06:58:53.574Z,98851.88
2019-02-12T07:00:01.482Z,98857.12
2019-02-12T07:01:09.361Z,98864.55
2019-02-12T07:03:07.738Z,98860.86
2019-02-12T07:04:15.833Z,98865.53
2019-02-12T07:05:24.132Z,98869.17
2019-02-12T07:07:00.282Z,98860.27
2019-02-12T07:08:21.898Z,98858.42
2019-02-12T07:09:34.426Z,98863.16
2019-02-12T07:10:42.447Z,98864.13
2019-02-12T07:12:19.465Z,98868.05
2019-02-12T07:13:39.248Z,98866.89
2019-02-12T07:15:00.701Z,98864.73
2019-02-12T07:16:13.467Z,98860.27
2019-02-12T07:17:56.787Z,98866.70
2019-02-12T07:19:29.965Z,98865.33
2019-02-12T07:21:06.288Z,98868.39
2019-02-12T07:22:46.420Z,98861.80
2019-02-12T07:24:07.932Z,98860.95
2019-02-12T07:25:55.110Z,98873.52
2019-02-12T07:27:18.858Z,98881.16
2019-02-12T07:28:49.527Z,98881.25
2019-02-12T07:30:18.989Z,98890.14
2019-02-12T07:32:00.434Z,98880.39
2019-02-12T07:33:16.090Z,98886.55
2019-02-12T07:34:46.702Z,98887.98
2019-02-12T07:36:32.548Z,98890.28
2019-02-12T07:38:04.397Z,98897.09
2019-02-12T07:39:22.259Z,98903.19
2019-02-12T07:41:02.005Z,98901.63
2019-02-12T07:42:34.340Z,98905.48
2019-02-12T07:43:55.740Z,98900.78
2019-02-12T07:45:27.491Z,98909.53
2019-02-12T07:46:42.768Z,98909.53
2019-02-12T07:48:13.499Z,98912.43
2019-02-12T07:49:42.175Z,98915.26
2019-02-12T07:51:12.994Z,98909.09
2019-02-12T07:52:40.961Z,98921.28
2019-02-12T07:54:29.360Z,98920.15
2019-02-12T07:55:47.651Z,98914.59
2019-02-12T07:57:19.594Z,98927.63
2019-02-12T07:58:47.288Z,98927.16
2019-02-12T08:00:15.057Z,98923.05
2019-02-12T08:01:33.266Z,98933.81
2019-02-12T08:02:58.299Z,98932.89
2019-02-12T08:04:36.387Z,98937.06
2019-02-12T08:05:57.539Z,98936.83
2019-02-12T08:07:34.198Z,98935.77
2019-02-12T08:09:40.106Z,98942.30
2019-02-12T08:11:01.247Z,98942.42
2019-02-12T08:12:31.617Z,98940.58
2019-02-12T08:14:25.354Z,98942.85
2019-02-12T08:16:05.139Z,98946.48
2019-02-12T08:17:32.426Z,98937.44
2019-02-12T08:19:13.798Z,98926.61
2019-02-12T08:21:06.886Z,98930.98
2019-02-12T08:22:25.254Z,98928.35
2019-02-12T08:23:41.170Z,98926.02
2019-02-12T08:25:22.406Z,98920.66
2019-02-12T08:26:50.133Z,98919.06
2019-02-12T08:28:23.521Z,98927.94
2019-02-12T08:29:35.964Z,98924.60
2019-02-12T08:31:00.323Z,98920.69
2019-02-12T08:32:30.727Z,98925.38
2019-02-12T08:33:52.026Z,98928.80
2019-02-12T08:35:22.940Z,98926.03
2019-02-12T08:36:56.376Z,98929.27
2019-02-12T08:38:57.818Z,98934.09
2019-02-12T08:40:10.603Z,98931.19
2019-02-12T08:41:42.750Z,98933.37
2019-02-12T08:42:55.269Z,98937.73
2019-02-12T08:44:19.946Z,98933.44
2019-02-12T08:45:50.569Z,98937.50
2019-02-12T08:47:21.016Z,98937.50
2019-02-12T08:48:45.747Z,98945.73
2019-02-12T08:50:19.758Z,98947.89
2019-02-12T08:52:08.536Z,98957.91
2019-02-12T08:53:50.578Z,98952.01
2019-02-12T08:55:28.133Z,98954.60
2019-02-12T08:57:12.284Z,98964.52
2019-02-12T08:58:30.465Z,98968.52
2019-02-12T08:59:58.296Z,98975.62
2019-02-12T09:01:19.555Z,98978.48
2019-02-12T09:02:58.775Z,98985.95
2019-02-12T09:04:35.745Z,98982.84
2019-02-12T09:06:13.253Z,98975.66
2019-02-12T09:07:31.629Z,98977.78
2019-02-12T09:08:52.739Z,98991.53
2019-02-12T09:10:20.782Z,98986.20
2019-02-12T09:12:06.808Z,98987.77
2019-02-12T09:13:28.165Z,98993.42
2019-02-12T09:14:52.992Z,98994.11
2019-02-12T09:16:34.488Z,99003.80
2019-02-12T09:18:05.297Z,99001.44
2019-02-12T09:19:23.620Z,99002.19
2019-02-12T09:21:04.278Z,99017.50
2019-02-12T09:22:22.235Z,99008.55
2019-02-12T09:24:00.392Z,99009.95
2019-02-12T09:25:28.054Z,99015.80
2019-02-12T09:26:52.372Z,99015.28
2019-02-12T09:28:33.413Z,99024.18
2019-02-12T09:29:51.684Z,99035.77
2019-02-12T09:31:24.970Z,99034.30
2019-02-12T09:33:03.089Z,99040.78
2019-02-12T09:34:18.287Z,99032.39
2019-02-12T09:35:42.309Z,99035.38
2019-02-12T09:37:34.284Z,99035.98
2019-02-12T09:39:10.144Z,99040.30
2019-02-12T09:40:32.411Z,99025.73
2019-02-12T09:41:50.487Z,99039.72
2019-02-12T09:43:25.506Z,99046.95
2019-02-12T09:44:37.861Z,99040.39
2019-02-12T09:46:19.870Z,99039.16
2019-02-12T09:47:53.362Z,99056.13
2019-02-12T09:49:44.354Z,99048.48
2019-02-12T09:51:08.505Z,99043.65
2019-02-12T09:52:54.674Z,99038.61
2019-02-12T09:54:20.661Z,99045.12
2019-02-12T09:55:50.913Z,99046.28
2019-02-12T09:57:23.840Z,99047.69
2019-02-12T09:58:51.801Z,99042.28
2019-02-12T10:00:08.279Z,99040.80
2019-02-12T10:01:26.731Z,99058.64
2019-02-12T10:03:03.410Z,99049.81
2019-02-12T10:04:35.190Z,99052.81
2019-02-12T10:06:22.102Z,99057.63
2019-02-12T10:07:42.507Z,99052.73
2019-02-12T10:09:05.190Z,99055.21
2019-02-12T10:10:17.995Z,99056.11
2019-02-12T10:11:53.047Z,99057.84
2019-02-12T10:13:05.444Z,99061.63
2019-02-12T10:14:38.298Z,99065.02
2019-02-12T10:15:59.598Z,99060.56
2019-02-12T10:17:36.616Z,99063.25
2019-02-12T10:18:52.208Z,99069.97
2019-02-12T10:20:04.596Z,99074.11
2019-02-12T10:21:31.986Z,99057.19
2019-02-12T10:22:50.385Z,99065.61
2019-02-12T10:24:19.981Z,99067.78
2019-02-12T10:25:27.995Z,99070.41
2019-02-12T10:27:06.015Z,99080.06
2019-02-12T10:28:57.581Z,99070.60
2019-02-12T10:30:32.195Z,99082.05
2019-02-12T10:31:44.139Z,99072.00
2019-02-12T10:32:52.036Z,99083.42
2019-02-12T10:33:59.549Z,99093.95
2019-02-12T10:35:07.236Z,99068.95
2019-02-12T10:36:15.031Z,99095.64
2019-02-12T10:37:23.101Z,99088.17
2019-02-12T10:38:30.672Z,99095.05
2019-02-12T10:39:38.465Z,99105.62
2019-02-12T10:40:46.359Z,99096.30
2019-02-12T10:41:54.121Z,99094.20
2019-02-12T10:43:02.002Z,99101.33
2019-02-12T10:44:10.039Z,99106.65
2019-02-12T10:45:17.955Z,99100.27
2019-02-12T10:46:26.084Z,99101.93
2019-02-12T10:47:33.611Z,99099.45
2019-02-12T10:48:41.400Z,99096.05
2019-02-12T10:49:49.243Z,99091.31
2019-02-12T10:50:56.975Z,99093.16
2019-02-12T10:52:04.607Z,99083.42
2019-02-12T10:53:12.616Z,99083.98
2019-02-12T10:54:27.758Z,99086.99
2019-02-12T10:55:29.870Z,99078.97
2019-02-12T10:56:37.795Z,99077.97
2019-02-12T10:57:45.650Z,99078.78
2019-02-12T10:58:53.447Z,99075.43
2019-02-12T11:00:01.248Z,99076.91
2019-02-12T11:01:09.243Z,99082.23
2019-02-12T11:02:17.257Z,99069.98
2019-02-12T11:03:25.011Z,99074.70
2019-02-12T11:04:32.911Z,99074.39
2019-02-12T11:05:40.739Z,99070.92
2019-02-12T11:06:48.387Z,99070.11
2019-02-12T11:07:56.172Z,99076.36
2019-02-12T11:09:04.998Z,99078.22
2019-02-12T11:10:12.584Z,99069.24
2019-02-12T11:11:20.479Z,99075.05
2019-02-12T11:12:28.572Z,99077.36
2019-02-12T11:13:36.285Z,99084.30
2019-02-12T11:14:44.320Z,99079.22
2019-02-12T11:15:52.028Z,99069.45
2019-02-12T11:16:59.520Z,99084.17
2019-02-12T11:18:07.008Z,99078.36
2019-02-12T11:19:14.583Z,99088.64
2019-02-12T11:20:22.082Z,99092.95
2019-02-12T11:21:30.167Z,99090.24
2019-02-12T11:22:38.140Z,99092.36
2019-02-12T11:23:46.257Z,99086.71
2019-02-12T11:24:53.912Z,99091.05
2019-02-12T11:26:01.661Z,99086.63
2019-02-12T11:27:09.416Z,99096.95
2019-02-12T11:28:17.460Z,99083.11
2019-02-12T11:29:25.210Z,99079.34
2019-02-12T11:30:32.942Z,99087.39
2019-02-12T11:31:40.651Z,99088.67
2019-02-12T11:32:48.233Z,99081.23
2019-02-12T11:33:55.678Z,99086.13
2019-02-12T11:35:03.774Z,99088.77
2019-02-12T11:36:11.615Z,99079.13
2019-02-12T11:37:19.122Z,99076.48
2019-02-12T11:38:26.780Z,99080.18
2019-02-12T11:39:34.800Z,99070.84
2019-02-12T11:40:42.836Z,99072.48
2019-02-12T11:41:50.339Z,99071.77
2019-02-12T11:42:58.374Z,99072.24
2019-02-12T11:44:05.951Z,99076.73
2019-02-12T11:45:16.539Z,99074.36
2019-02-12T11:46:26.006Z,99070.25
2019-02-12T11:47:33.766Z,99078.70
2019-02-12T11:48:41.719Z,99079.09
2019-02-12T11:49:49.688Z,99072.64
2019-02-12T11:50:57.402Z,99083.92
2019-02-12T11:52:05.163Z,99085.22
2019-02-12T11:53:12.988Z,99071.30
2019-02-12T11:54:20.857Z,99090.36
2019-02-12T11:55:28.812Z,99089.22
2019-02-12T11:56:37.147Z,99091.05
2019-02-12T11:57:45.235Z,99087.47
2019-02-12T11:58:53.029Z,99075.20
2019-02-12T12:00:00.862Z,99077.48
2019-02-12T12:01:10.384Z,99085.33
2019-02-12T12:02:19.714Z,99091.53
2019-02-12T12:03:28.029Z,99088.41
2019-02-12T12:04:36.285Z,99082.91
2019-02-12T12:05:44.210Z,99089.92
2019-02-12T12:06:51.830Z,99088.96
2019-02-12T12:08:00.309Z,99092.59
2019-02-12T12:09:08.201Z,99088.34
2019-02-12T12:10:16.489Z,99096.66
2019-02-12T12:11:24.302Z,99093.79
2019-02-12T12:12:33.621Z,99099.52
2019-02-12T12:13:41.206Z,99090.61
2019-02-12T12:14:48.787Z,99089.52
2019-02-12T12:15:56.419Z,99096.48
2019-02-12T12:17:04.197Z,99097.25
2019-02-12T12:18:13.522Z,99091.59
2019-02-12T12:19:21.140Z,99090.20
2019-02-12T12:20:28.719Z,99091.05
2019-02-12T12:21:36.638Z,99091.56
2019-02-12T12:22:44.528Z,99082.04
2019-02-12T12:23:52.826Z,99094.47
2019-02-12T12:25:00.647Z,99098.47
2019-02-12T12:26:08.493Z,99089.41
2019-02-12T12:27:16.231Z,99096.56
2019-02-12T12:28:24.137Z,99095.95
2019-02-12T12:29:31.879Z,99091.42
2019-02-12T12:30:39.503Z,99092.07
2019-02-12T12:31:47.215Z,99094.33
2019-02-12T12:32:56.463Z,99094.80
2019-02-12T12:34:04.290Z,99088.09
2019-02-12T12:35:12.902Z,99089.38
2019-02-12T12:36:20.697Z,99098.50
2019-02-12T12:37:28.846Z,99104.27
2019-02-12T12:38:36.418Z,99099.29
2019-02-12T12:39:44.053Z,99106.06
2019-02-12T12:40:52.659Z,99112.72
2019-02-12T12:42:00.825Z,99110.50
2019-02-12T12:43:08.590Z,99117.27
2019-02-12T12:44:16.235Z,99127.27
2019-02-12T12:45:24.443Z,99130.58
2019-02-12T12:46:32.075Z,99130.56
2019-02-12T12:47:40.343Z,99140.79
2019-02-12T12:48:48.591Z,99144.42
2019-02-12T12:49:56.623Z,99135.59
2019-02-12T12:51:04.829Z,99144.15
2019-02-12T12:52:12.978Z,99141.53
2019-02-12T12:53:21.307Z,99150.80
2019-02-12T12:54:29.006Z,99151.27
2019-02-12T12:55:37.226Z,99152.25
2019-02-12T12:56:45.447Z,99149.39
2019-02-12T12:57:53.631Z,99140.31
2019-02-12T12:59:01.690Z,99142.05
2019-02-12T13:00:15.207Z,99144.61
2019-02-12T13:01:23.355Z,99153.80
2019-02-12T13:02:31.247Z,99141.36
2019-02-12T13:03:39.312Z,99155.34
2019-02-12T13:04:47.509Z,99152.49
2019-02-12T13:05:55.225Z,99148.70
2019-02-12T13:07:03.934Z,99156.29
2019-02-12T13:08:11.899Z,99157.00
2019-02-12T13:09:20.082Z,99162.27
2019-02-12T13:10:30.341Z,99167.94
2019-02-12T13:11:38.890Z,99167.80
2019-02-12T13:12:47.107Z,99169.06
2019-02-12T13:13:55.052Z,99164.20
2019-02-12T13:15:03.357Z,99159.56
2019-02-12T13:16:11.120Z,99162.48
2019-02-12T13:17:19.317Z,99162.67
2019-02-12T13:18:27.059Z,99166.83
2019-02-12T13:19:35.305Z,99163.78
2019-02-12T13:20:43.271Z,99170.54
2019-02-12T13:21:51.013Z,99176.48
2019-02-12T13:22:58.683Z,99183.09
2019-02-12T13:24:08.231Z,99186.72
2019-02-12T13:25:15.844Z,99181.64
2019-02-12T13:26:25.024Z,99190.91
2019-02-12T13:27:32.957Z,99193.61
2019-02-12T13:28:40.703Z,99187.38
2019-02-12T13:29:48.931Z,99199.13
2019-02-12T13:30:56.820Z,99198.84
2019-02-12T13:32:04.856Z,99205.39
2019-02-12T13:33:12.953Z,99206.67
2019-02-12T13:34:20.991Z,99209.30
2019-02-12T13:35:29.358Z,99211.69
2019-02-12T13:36:37.551Z,99205.45
2019-02-12T13:37:45.914Z,99217.91
2019-02-12T13:38:53.914Z,99205.41
2019-02-12T13:40:04.551Z,99199.48
2019-02-12T13:41:12.804Z,99211.59
2019-02-12T13:42:20.652Z,99217.13
2019-02-12T13:43:28.532Z,99210.97
2019-02-12T13:44:36.526Z,99207.69
2019-02-12T13:45:44.513Z,99210.03
2019-02-12T13:46:52.741Z,99210.67
2019-02-12T13:48:01.322Z,99214.98
2019-02-12T13:49:10.235Z,99218.38
2019-02-12T13:50:18.545Z,99224.69
2019-02-12T13:51:26.837Z,99222.30
2019-02-12T13:52:34.578Z,99222.68
2019-02-12T13:53:42.600Z,99222.19
2019-02-12T13:54:50.442Z,99219.96
2019-02-12T13:55:58.618Z,99228.94
2019-02-12T13:57:06.417Z,99228.02
2019-02-12T13:58:14.402Z,99228.32
2019-02-12T13:59:22.089Z,99235.75
2019-02-12T14:00:29.982Z,99226.38
2019-02-12T14:01:37.824Z,99232.84
2019-02-12T14:02:45.568Z,99240.84
2019-02-12T14:03:53.974Z,99227.11
2019-02-12T14:05:01.956Z,99232.78
2019-02-12T14:06:09.935Z,99238.11
2019-02-12T14:07:17.451Z,99236.98
2019-02-12T14:08:25.428Z,99232.38
2019-02-12T14:09:33.296Z,99238.23
2019-02-12T14:10:41.305Z,99245.66
2019-02-12T14:11:48.843Z,99239.41
2019-02-12T14:12:56.797Z,99249.98
2019-02-12T14:14:04.943Z,99255.70
2019-02-12T14:15:14.319Z,99243.56
2019-02-12T14:16:22.280Z,99261.59
2019-02-12T14:17:30.505Z,99256.88
2019-02-12T14:18:38.665Z,99260.96
2019-02-12T14:19:46.864Z,99264.48
2019-02-12T14:20:54.815Z,99262.77
2019-02-12T14:22:02.920Z,99272.89
2019-02-12T14:23:10.800Z,99270.66
2019-02-12T14:24:20.122Z,99265.36
2019-02-12T14:25:28.423Z,99268.03
2019-02-12T14:26:36.315Z,99271.19
2019-02-12T14:27:44.299Z,99268.17
2019-02-12T14:28:54.156Z,99269.02
2019-02-12T14:30:02.518Z,99274.98
2019-02-12T14:31:10.817Z,99269.48
2019-02-12T14:32:19.048Z,99280.02
2019-02-12T14:33:27.095Z,99277.25
2019-02-12T14:34:35.035Z,99286.11
2019-02-12T14:35:42.961Z,99286.61
2019-02-12T14:36:50.920Z,99296.65
2019-02-12T14:37:58.525Z,99285.76
2019-02-12T14:39:06.911Z,99279.72
2019-02-12T14:40:16.570Z,99288.23
2019-02-12T14:41:24.412Z,99289.15
2019-02-12T14:42:32.381Z,99297.02
2019-02-12T14:43:40.790Z,99293.02
2019-02-12T14:44:49.185Z,99291.70
2019-02-12T14:45:57.111Z,99304.05
2019-02-12T14:47:05.636Z,99296.34
2019-02-12T14:48:13.167Z,99295.55
2019-02-12T14:49:21.466Z,99299.17
2019-02-12T14:50:29.204Z,99302.64
2019-02-12T14:51:37.184Z,99304.74
2019-02-12T14:52:45.285Z,99300.73
2019-02-12T14:53:53.088Z,99302.91
2019-02-12T14:55:01.115Z,99303.36
2019-02-12T14:56:11.375Z,99301.95
2019-02-12T14:57:18.791Z,99305.82
2019-02-12T14:58:26.633Z,99306.53
2019-02-12T14:59:34.599Z,99303.91
2019-02-12T15:00:42.499Z,99305.13
2019-02-12T15:01:50.719Z,99302.89
2019-02-12T15:02:58.325Z,99309.05
2019-02-12T15:04:05.824Z,99312.61
2019-02-12T15:05:13.962Z,99320.65
2019-02-12T15:06:22.031Z,99325.89
2019-02-12T15:07:30.260Z,99321.50
2019-02-12T15:08:37.948Z,99320.65
2019-02-12T15:09:46.324Z,99325.44
2019-02-12T15:10:53.766Z,99322.55
2019-02-12T15:12:02.001Z,99323.50
2019-02-12T15:13:10.060Z,99315.70
2019-02-12T15:14:19.910Z,99319.70
2019-02-12T15:15:28.213Z,99321.47
2019-02-12T15:16:36.235Z,99318.92
2019-02-12T15:17:43.952Z,99316.92
2019-02-12T15:18:51.932Z,99326.66
2019-02-12T15:19:59.497Z,99333.22
2019-02-12T15:21:07.646Z,99325.74
2019-02-12T15:22:15.437Z,99335.98
2019-02-12T15:23:23.682Z,99336.04
2019-02-12T15:24:31.704Z,99338.20
2019-02-12T15:25:42.039Z,99331.25
2019-02-12T15:26:49.659Z,99337.35
2019-02-12T15:27:57.735Z,99338.70
2019-02-12T15:29:05.701Z,99345.78
2019-02-12T15:30:17.857Z,99346.77
2019-02-12T15:31:25.581Z,99352.47
2019-02-12T15:32:33.915Z,99354.30
2019-02-12T15:33:42.054Z,99346.07
2019-02-12T15:34:50.405Z,99337.80
2019-02-12T15:35:58.511Z,99342.75
2019-02-12T15:37:06.472Z,99349.56
2019-02-12T15:38:14.310Z,99350.02
2019-02-12T15:39:22.243Z,99357.46
2019-02-12T15:40:30.072Z,99343.50
2019-02-12T15:41:38.021Z,99356.73
2019-02-12T15:42:45.989Z,99358.11
2019-02-12T15:43:53.641Z,99350.86
2019-02-12T15:45:01.659Z,99365.89
2019-02-12T15:46:09.913Z,99355.92
2019-02-12T15:47:17.851Z,99362.48
2019-02-12T15:48:26.364Z,99368.58
2019-02-12T15:49:34.627Z,99376.84
2019-02-12T15:50:42.683Z,99378.61
2019-02-12T15:51:51.049Z,99383.97
2019-02-12T15:52:59.051Z,99386.59
2019-02-12T15:54:07.602Z,99380.89
2019-02-12T15:55:16.318Z,99387.45
2019-02-12T15:56:24.474Z,99389.22
2019-02-12T15:57:32.963Z,99392.23
2019-02-12T15:58:40.958Z,99389.55
2019-02-12T15:59:49.210Z,99389.95
2019-02-12T16:00:57.052Z,99396.44
2019-02-12T16:02:04.737Z,99395.13
2019-02-12T16:03:12.451Z,99400.38
2019-02-12T16:04:21.663Z,99390.53
2019-02-12T16:05:30.694Z,99398.15
2019-02-12T16:06:40.292Z,99396.53
2019-02-12T16:07:48.909Z,99395.00
2019-02-12T16:08:56.599Z,99401.25
2019-02-12T16:10:05.934Z,99411.84
2019-02-12T16:11:14.029Z,99414.04
2019-02-12T16:12:22.108Z,99414.16
2019-02-12T16:13:30.369Z,99417.23
2019-02-12T16:14:40.025Z,99420.31
2019-02-12T16:15:48.378Z,99422.53
2019-02-12T16:16:57.316Z,99428.69
2019-02-12T16:18:05.667Z,99423.05
2019-02-12T16:19:14.202Z,99426.55
2019-02-12T16:20:23.062Z,99427.78
2019-02-12T16:21:31.499Z,99436.55
2019-02-12T16:22:39.747Z,99426.98
2019-02-12T16:23:47.796Z,99436.16
2019-02-12T16:24:56.459Z,99431.34
2019-02-12T16:26:04.351Z,99438.31
2019-02-12T16:27:12.595Z,99441.28
2019-02-12T16:28:20.482Z,99444.30
2019-02-12T16:29:28.443Z,99445.55
2019-02-12T16:30:36.594Z,99448.94
2019-02-12T16:31:44.679Z,99447.58
2019-02-12T16:32:52.865Z,99450.53
2019-02-12T16:34:00.638Z,99449.59
2019-02-12T16:35:14.400Z,99452.95
2019-02-12T16:36:22.802Z,99451.58
2019-02-12T16:37:30.895Z,99459.91
2019-02-12T16:38:40.389Z,99459.87
2019-02-12T16:39:48.331Z,99456.83
2019-02-12T16:40:56.225Z,99463.81
2019-02-12T16:42:04.151Z,99458.56
2019-02-12T16:43:12.147Z,99466.45
2019-02-12T16:44:20.225Z,99473.41
2019-02-12T16:45:44.834Z,99479.17
2019-02-12T16:46:52.574Z,99468.28
2019-02-12T16:48:01.217Z,99479.62
2019-02-12T16:49:09.034Z,99481.00
2019-02-12T16:50:16.938Z,99487.95
2019-02-12T16:51:24.991Z,99485.38
2019-02-12T16:52:33.130Z,99490.56
2019-02-12T16:53:41.275Z,99485.38
2019-02-12T16:54:51.176Z,99479.34
2019-02-12T16:55:59.137Z,99487.23
2019-02-12T16:57:06.921Z,99497.64
2019-02-12T16:58:14.998Z,99493.76
2019-02-12T16:59:22.986Z,99499.86
2019-02-12T17:00:30.946Z,99501.17
2019-02-12T17:01:38.601Z,99504.19
2019-02-12T17:02:46.977Z,99504.19
2019-02-12T17:03:56.178Z,99505.58
2019-02-12T17:05:07.319Z,99513.56
2019-02-12T17:06:15.160Z,99507.46
2019-02-12T17:07:23.008Z,99515.78
2019-02-12T17:08:30.939Z,99520.56
2019-02-12T17:09:38.937Z,99525.81
2019-02-12T17:10:46.889Z,99518.86
2019-02-12T17:11:54.925Z,99532.82
2019-02-12T17:13:02.977Z,99531.00
2019-02-12T17:14:10.815Z,99529.74
2019-02-12T17:15:18.779Z,99536.30
2019-02-12T17:16:26.567Z,99539.38
2019-02-12T17:17:35.019Z,99536.44
2019-02-12T17:18:43.529Z,99546.12
2019-02-12T17:19:51.214Z,99539.22
2019-02-12T17:20:59.210Z,99544.48
2019-02-12T17:22:06.952Z,99544.46
2019-02-12T17:23:14.845Z,99541.41
2019-02-12T17:24:22.926Z,99554.17
2019-02-12T17:25:30.521Z,99556.39
2019-02-12T17:26:39.018Z,99549.95
2019-02-12T17:27:48.103Z,99540.31
2019-02-12T17:28:56.127Z,99550.37
2019-02-12T17:30:05.342Z,99562.16
2019-02-12T17:31:13.009Z,99560.45
2019-02-12T17:32:21.029Z,99561.30
2019-02-12T17:33:29.064Z,99574.86
2019-02-12T17:34:36.932Z,99576.16
2019-02-12T17:35:45.124Z,99586.64
2019-02-12T17:36:52.750Z,99583.50
2019-02-12T17:38:00.393Z,99589.55
2019-02-12T17:39:08.821Z,99584.81
2019-02-12T17:40:18.562Z,99592.68
2019-02-12T17:41:26.358Z,99596.61
2019-02-12T17:42:34.162Z,99600.94
2019-02-12T17:43:41.746Z,99597.41
2019-02-12T17:44:49.811Z,99596.50
2019-02-12T17:45:57.616Z,99601.27
2019-02-12T17:47:06.556Z,99607.31
2019-02-12T17:48:14.965Z,99605.48
2019-02-12T17:49:23.215Z,99607.59
2019-02-12T17:50:31.167Z,99609.02
2019-02-12T17:51:39.093Z,99613.75
2019-02-12T17:52:47.284Z,99613.92
2019-02-12T17:53:54.944Z,99613.00
2019-02-12T17:55:02.906Z,99618.20
2019-02-12T17:56:10.884Z,99616.53
2019-02-12T17:57:19.344Z,99619.61
2019-02-12T17:58:27.433Z,99615.25
2019-02-12T17:59:35.399Z,99623.62
2019-02-12T18:00:45.459Z,99625.38
2019-02-12T18:01:53.635Z,99622.81
2019-02-12T18:03:01.531Z,99630.17
2019-02-12T18:04:09.550Z,99624.47
2019-02-12T18:05:17.649Z,99618.77
2019-02-12T18:06:25.651Z,99629.20
2019-02-12T18:07:33.781Z,99629.64
2019-02-12T18:08:41.773Z,99617.41
2019-02-12T18:09:49.671Z,99631.08
2019-02-12T18:11:00.311Z,99630.28
2019-02-12T18:12:09.876Z,99636.32
2019-02-12T18:13:18.118Z,99642.77
2019-02-12T18:14:26.093Z,99638.36
2019-02-12T18:15:34.185Z,99637.00
2019-02-12T18:16:42.443Z,99645.71
2019-02-12T18:17:50.560Z,99648.79
2019-02-12T18:18:59.077Z,99657.51
2019-02-12T18:20:10.627Z,99649.25
2019-02-12T18:21:18.775Z,99657.61
2019-02-12T18:22:26.987Z,99656.30
2019-02-12T18:23:35.487Z,99660.19
2019-02-12T18:24:45.813Z,99654.09
2019-02-12T18:25:54.031Z,99662.75
2019-02-12T18:27:02.051Z,99659.57
2019-02-12T18:28:10.130Z,99660.93
2019-02-12T18:29:18.598Z,99660.98
2019-02-12T18:30:26.416Z,99666.13
2019-02-12T18:31:34.632Z,99664.86
2019-02-12T18:32:43.299Z,99662.70
2019-02-12T18:33:51.725Z,99662.70
2019-02-12T18:34:59.920Z,99670.11
2019-02-12T18:36:07.809Z,99666.13
2019-02-12T18:37:16.204Z,99666.10
2019-02-12T18:38:24.233Z,99673.06
2019-02-12T18:39:32.307Z,99671.23
2019-02-12T18:40:40.695Z,99680.41
2019-02-12T18:41:49.146Z,99674.84
2019-02-12T18:42:57.177Z,99659.63
2019-02-12T18:44:05.364Z,99669.81
2019-02-12T18:45:19.562Z,99672.38
2019-02-12T18:46:28.556Z,99673.23
2019-02-12T18:47:36.569Z,99674.84
2019-02-12T18:48:46.278Z,99677.17
2019-02-12T18:49:54.636Z,99678.88
2019-02-12T18:51:04.630Z,99678.48
2019-02-12T18:52:13.759Z,99683.22
2019-02-12T18:53:21.886Z,99679.38
2019-02-12T18:54:30.256Z,99682.52
2019-02-12T18:55:38.053Z,99688.23
2019-02-12T18:56:46.309Z,99687.32
2019-02-12T18:57:54.913Z,99688.69
2019-02-12T18:59:02.937Z,99687.02
2019-02-12T19:00:20.913Z,99696.64
2019-02-12T19:01:28.938Z,99702.29
2019-02-12T19:02:37.040Z,99703.60
2019-02-12T19:03:45.651Z,99705.77
2019-02-12T19:04:55.400Z,99714.84
2019-02-12T19:06:03.930Z,99715.28
2019-02-12T19:07:12.960Z,99720.47
2019-02-12T19:08:20.926Z,99720.41
2019-02-12T19:09:28.770Z,99721.73
2019-02-12T19:10:36.665Z,99721.33
2019-02-12T19:11:53.967Z,99725.61
2019-02-12T19:12:56.265Z,99728.28
2019-02-12T19:14:05.024Z,99736.64
2019-02-12T19:15:18.154Z,99730.09
2019-02-12T19:16:26.689Z,99735.23
2019-02-12T19:17:35.813Z,99743.91
2019-02-12T19:18:44.208Z,99742.12
2019-02-12T19:19:53.182Z,99738.20
2019-02-12T19:21:03.636Z,99739.52
2019-02-12T19:22:12.279Z,99748.23
2019-02-12T19:23:23.692Z,99746.45
2019-02-12T19:24:32.921Z,99744.69
2019-02-12T19:25:41.456Z,99745.09
2019-02-12T19:26:50.179Z,99746.05
2019-02-12T19:27:58.369Z,99758.70
2019-02-12T19:29:08.177Z,99749.13
2019-02-12T19:30:18.952Z,99757.34
2019-02-12T19:31:28.468Z,99766.41
2019-02-12T19:32:38.422Z,99763.73
2019-02-12T19:33:46.251Z,99764.08
2019-02-12T19:34:54.309Z,99768.87
2019-02-12T19:36:03.752Z,99764.48
2019-02-12T19:37:11.814Z,99761.05
2019-02-12T19:38:20.058Z,99766.75
2019-02-12T19:39:29.531Z,99767.25
2019-02-12T19:40:38.505Z,99763.77
2019-02-12T19:41:47.219Z,99763.77
2019-02-12T19:42:55.773Z,99771.59